createdAt,value
2019-03-30T00:00:02.654Z,7.4
2019-03-30T00:05:04.861Z,7.31
2019-03-30T00:10:06.816Z,7.25
2019-03-30T00:15:05.820Z,7.24
2019-03-30T00:20:04.438Z,7.32
2019-03-30T00:25:03.275Z,7.4
2019-03-30T00:30:02.298Z,7.3
2019-03-30T00:35:02.612Z,7.69
2019-03-30T00:40:02.574Z,7.92
2019-03-30T00:45:02.242Z,7.82
2019-03-30T00:50:02.577Z,7.69
2019-03-30T00:55:03.940Z,7.34
2019-03-30T01:00:03.203Z,7
2019-03-30T01:05:04.417Z,6.88
2019-03-30T01:10:05.269Z,7.1
2019-03-30T01:15:03.152Z,7.3
2019-03-30T01:20:03.972Z,7.27
2019-03-30T01:25:04.830Z,7.35
2019-03-30T01:30:03.050Z,7.45
2019-03-30T01:35:04.636Z,7.43
2019-03-30T01:40:05.060Z,7.4
2019-03-30T01:45:02.399Z,7.29
2019-03-30T01:50:16.471Z,7.12
2019-03-30T01:55:05.500Z,7.1
2019-03-30T02:00:03.298Z,7.02
2019-03-30T02:05:04.425Z,6.93
2019-03-30T02:10:04.732Z,6.86
2019-03-30T02:15:06.785Z,6.71
2019-03-30T02:20:05.715Z,6.78
2019-03-30T02:25:06.089Z,6.82
2019-03-30T02:30:04.764Z,6.72
2019-03-30T02:35:05.175Z,6.66
2019-03-30T02:40:04.563Z,6.52
2019-03-30T02:45:03.005Z,6.35
2019-03-30T02:50:05.302Z,6.2
2019-03-30T02:55:04.480Z,6.08
2019-03-30T03:00:02.415Z,5.96
2019-03-30T03:05:05.006Z,5.84
2019-03-30T03:10:03.554Z,5.56
2019-03-30T03:15:03.267Z,5.47
2019-03-30T03:20:05.398Z,5.35
2019-03-30T03:25:06.803Z,5.26
2019-03-30T03:30:04.699Z,5.12
2019-03-30T03:35:06.448Z,5.07
2019-03-30T03:40:08.881Z,5.19
2019-03-30T03:45:03.419Z,5.18
2019-03-30T03:50:05.376Z,5.15
2019-03-30T03:55:07.137Z,4.98
2019-03-30T04:00:04.279Z,4.86
2019-03-30T04:05:07.636Z,4.72
2019-03-30T04:10:05.317Z,4.63
2019-03-30T04:15:04.502Z,4.51
2019-03-30T04:20:05.469Z,4.46
2019-03-30T04:25:04.950Z,4.41
2019-03-30T04:30:04.270Z,4.36
2019-03-30T04:35:04.102Z,4.33
2019-03-30T04:40:03.984Z,4.32
2019-03-30T04:45:02.251Z,4.64
2019-03-30T04:50:04.330Z,5.12
2019-03-30T04:55:04.548Z,5.37
2019-03-30T05:00:02.084Z,5.25
2019-03-30T05:05:04.490Z,5.23
2019-03-30T05:10:02.137Z,5.52
2019-03-30T05:15:02.794Z,5.86
2019-03-30T05:20:02.777Z,6.12
2019-03-30T05:25:05.885Z,6.43
2019-03-30T05:30:03.170Z,6.6
2019-03-30T05:35:04.436Z,6.74
2019-03-30T05:40:04.882Z,6.98
2019-03-30T05:45:03.146Z,7.19
2019-03-30T05:50:05.546Z,7.2
2019-03-30T05:55:06.108Z,7.43
2019-03-30T06:00:03.674Z,7.56
2019-03-30T06:05:06.232Z,7.78
2019-03-30T06:10:05.100Z,8.06
2019-03-30T06:15:05.329Z,8.33
2019-03-30T06:20:04.503Z,8.62
2019-03-30T06:25:04.751Z,8.9
2019-03-30T06:30:02.500Z,9.24
2019-03-30T06:35:04.295Z,9.4
2019-03-30T06:40:04.816Z,9.64
2019-03-30T06:45:02.996Z,9.78
2019-03-30T06:50:04.108Z,9.86
2019-03-30T06:55:04.746Z,10.08
2019-03-30T07:00:02.977Z,10.22
2019-03-30T07:05:04.149Z,10.38
2019-03-30T07:10:04.073Z,10.56
2019-03-30T07:15:02.768Z,10.79
2019-03-30T07:20:04.081Z,10.87
2019-03-30T07:25:06.593Z,11.08
2019-03-30T07:30:02.939Z,11.15
2019-03-30T07:35:05.345Z,11.47
2019-03-30T07:40:04.490Z,11.91
2019-03-30T07:45:03.015Z,12.35
2019-03-30T07:50:04.524Z,12.78
2019-03-30T07:55:04.811Z,13.16
2019-03-30T08:00:03.363Z,13.25
2019-03-30T08:05:04.831Z,13.49
2019-03-30T08:10:03.382Z,13.77
2019-03-30T08:15:03.160Z,14.06
2019-03-30T08:20:03.862Z,14.26
2019-03-30T08:25:04.516Z,14.83
2019-03-30T08:30:02.174Z,15.13
2019-03-30T08:35:04.220Z,15.36
2019-03-30T08:40:04.689Z,15.77
2019-03-30T08:45:02.335Z,15.75
2019-03-30T08:50:04.072Z,15.9
2019-03-30T08:55:04.467Z,16.3
2019-03-30T09:00:02.028Z,16.77
2019-03-30T09:05:04.639Z,16.66
2019-03-30T09:10:04.345Z,16.79
2019-03-30T09:15:02.002Z,17.08
2019-03-30T09:20:04.585Z,17.24
2019-03-30T09:25:04.725Z,17.51
2019-03-30T09:30:02.392Z,17.65
2019-03-30T09:35:03.966Z,17.97
2019-03-30T09:40:04.508Z,17.83
2019-03-30T09:45:02.199Z,17.96
2019-03-30T09:50:04.215Z,18.12
2019-03-30T09:55:04.436Z,18.22
2019-03-30T10:00:02.018Z,18.23
2019-03-30T10:05:04.224Z,18.27
2019-03-30T10:10:02.476Z,18.19
2019-03-30T10:15:02.192Z,18.03
2019-03-30T10:20:05.215Z,17.98
2019-03-30T10:25:03.545Z,18.19
2019-03-30T10:30:01.830Z,18.25
2019-03-30T10:35:03.087Z,18.07
2019-03-30T10:40:03.937Z,17.6
2019-03-30T10:45:02.697Z,17.92
2019-03-30T10:50:04.539Z,18.28
2019-03-30T10:55:05.375Z,18.56
2019-03-30T11:00:03.209Z,18.69
2019-03-30T11:05:04.698Z,18.78
2019-03-30T11:10:05.086Z,18.68
2019-03-30T11:15:03.634Z,18.77
2019-03-30T11:20:05.067Z,18.78
2019-03-30T11:25:07.602Z,18.87
2019-03-30T11:30:02.682Z,18.8
2019-03-30T11:35:04.370Z,18.81
2019-03-30T11:40:04.845Z,19.21
2019-03-30T11:45:02.816Z,19.26
2019-03-30T11:50:04.558Z,19.01
2019-03-30T11:55:04.969Z,18.99
2019-03-30T12:00:02.751Z,19
2019-03-30T12:05:05.893Z,18.96
2019-03-30T12:10:04.635Z,18.74
2019-03-30T12:15:02.654Z,18.76
2019-03-30T12:20:05.046Z,19.06
2019-03-30T12:25:04.649Z,19.14
2019-03-30T12:30:02.961Z,19.24
2019-03-30T12:35:03.824Z,19
2019-03-30T12:40:03.877Z,18.8
2019-03-30T12:45:02.771Z,18.69
2019-03-30T12:50:03.733Z,18.76
2019-03-30T12:55:04.526Z,18.85
2019-03-30T13:00:03.276Z,18.98
2019-03-30T13:10:04.051Z,19.35
2019-03-30T13:15:03.194Z,19.2
2019-03-30T13:20:03.784Z,19.09
2019-03-30T13:25:04.497Z,18.89
2019-03-30T13:30:02.724Z,18.99
2019-03-30T13:35:04.031Z,19.05
2019-03-30T13:40:04.623Z,18.94
2019-03-30T13:45:04.125Z,19.21
2019-03-30T13:50:04.577Z,19.17
2019-03-30T13:55:04.338Z,19.29
2019-03-30T14:00:03.731Z,19.12
2019-03-30T14:05:05.673Z,18.87
2019-03-30T14:10:03.376Z,18.95
2019-03-30T14:15:03.336Z,18.81
2019-03-30T14:20:03.773Z,18.78
2019-03-30T14:25:04.052Z,18.77
2019-03-30T14:30:03.162Z,18.73
2019-03-30T14:35:04.285Z,18.94
2019-03-30T14:40:05.099Z,18.89
2019-03-30T14:45:02.180Z,18.8
2019-03-30T14:50:06.363Z,18.73
2019-03-30T14:55:04.280Z,18.69
2019-03-30T15:00:02.075Z,18.44
2019-03-30T15:05:04.311Z,18.44
2019-03-30T15:10:06.667Z,18.5
2019-03-30T15:15:02.434Z,18.48
2019-03-30T15:20:03.231Z,18.49
2019-03-30T15:25:02.951Z,18.56
2019-03-30T15:30:02.218Z,18.55
2019-03-30T15:35:03.320Z,18.51
2019-03-30T15:40:02.891Z,18.35
2019-03-30T15:45:02.163Z,18.27
2019-03-30T15:50:03.300Z,18.2
2019-03-30T15:55:02.878Z,18.15
2019-03-30T16:00:02.118Z,17.99
2019-03-30T16:05:03.307Z,17.82
2019-03-30T16:10:02.880Z,17.74
2019-03-30T16:15:02.140Z,17.58
2019-03-30T16:20:04.778Z,17.44
2019-03-30T16:25:04.740Z,17.36
2019-03-30T16:30:02.477Z,17.32
2019-03-30T16:35:03.788Z,17.19
2019-03-30T16:40:04.132Z,17
2019-03-30T16:45:03.191Z,16.87
2019-03-30T16:50:04.360Z,16.71
2019-03-30T16:55:04.600Z,16.58
2019-03-30T17:00:02.952Z,16.47
2019-03-30T17:05:04.235Z,16.45
2019-03-30T17:10:04.772Z,16.31
2019-03-30T17:15:03.044Z,16.19
2019-03-30T17:20:04.154Z,15.92
2019-03-30T17:25:05.163Z,15.74
2019-03-30T17:30:02.466Z,15.71
2019-03-30T17:35:04.533Z,15.46
2019-03-30T17:40:05.038Z,15.26
2019-03-30T17:45:03.205Z,15.08
2019-03-30T17:50:04.283Z,14.89
2019-03-30T17:55:05.297Z,14.69
2019-03-30T18:00:02.751Z,14.47
2019-03-30T18:05:05.393Z,14.25
2019-03-30T18:10:04.245Z,14.04
2019-03-30T18:15:02.541Z,13.82
2019-03-30T18:20:05.014Z,13.61
2019-03-30T18:25:04.646Z,13.43
2019-03-30T18:30:03.237Z,13.3
2019-03-30T18:35:05.094Z,13.14
2019-03-30T18:40:04.250Z,12.95
2019-03-30T18:45:02.665Z,12.93
2019-03-30T18:50:04.940Z,12.86
2019-03-30T18:55:04.537Z,12.84
2019-03-30T19:00:02.635Z,12.77
2019-03-30T19:05:05.113Z,12.65
2019-03-30T19:10:04.488Z,12.56
2019-03-30T19:15:03.043Z,12.41
2019-03-30T19:20:04.391Z,12.36
2019-03-30T19:25:05.181Z,12.14
2019-03-30T19:30:02.667Z,11.99
2019-03-30T19:35:05.011Z,12.06
2019-03-30T19:40:03.448Z,11.97
2019-03-30T19:45:02.475Z,11.73
2019-03-30T19:50:04.154Z,11.6
2019-03-30T19:55:04.544Z,11.55
2019-03-30T20:00:02.162Z,11.61
2019-03-30T20:05:03.902Z,11.7
2019-03-30T20:10:04.266Z,11.73
2019-03-30T20:15:02.039Z,11.7
2019-03-30T20:20:03.857Z,11.68
2019-03-30T20:25:04.535Z,11.63
2019-03-30T20:30:02.051Z,11.53
2019-03-30T20:35:03.936Z,11.43
2019-03-30T20:40:04.117Z,11.28
2019-03-30T20:45:02.741Z,11.14
2019-03-30T20:50:03.999Z,10.95
2019-03-30T20:55:03.978Z,10.93
2019-03-30T21:00:02.192Z,10.94
2019-03-30T21:05:05.144Z,10.86
2019-03-30T21:10:03.778Z,10.81
2019-03-30T21:15:02.153Z,10.71
2019-03-30T21:20:05.148Z,10.64
2019-03-30T21:25:04.404Z,10.56
2019-03-30T21:30:02.081Z,10.78
2019-03-30T21:35:05.000Z,10.83
2019-03-30T21:40:02.559Z,10.75
2019-03-30T21:45:02.434Z,10.68
2019-03-30T21:50:02.736Z,10.7
2019-03-30T21:55:03.215Z,10.6
2019-03-30T22:00:09.512Z,10.49
2019-03-30T22:05:02.605Z,10.51
2019-03-30T22:10:03.172Z,10.58
2019-03-30T22:15:02.192Z,10.52
2019-03-30T22:20:03.325Z,10.48
2019-03-30T22:25:03.306Z,10.44
2019-03-30T22:30:03.469Z,10.49
2019-03-30T22:35:04.396Z,10.37
2019-03-30T22:40:03.416Z,10.29
2019-03-30T22:45:02.932Z,10.15
2019-03-30T22:50:04.705Z,10.01
2019-03-30T22:55:04.825Z,9.83
2019-03-30T23:00:02.778Z,9.68
2019-03-30T23:05:04.589Z,9.62
2019-03-30T23:10:04.258Z,9.55
2019-03-30T23:15:03.181Z,9.5
2019-03-30T23:20:04.528Z,9.48
2019-03-30T23:25:05.179Z,9.31
2019-03-30T23:30:02.887Z,9.16
2019-03-30T23:35:04.039Z,8.95
2019-03-30T23:40:04.383Z,8.73
2019-03-30T23:45:03.112Z,8.81
2019-03-30T23:50:05.116Z,8.91
2019-03-30T23:55:04.501Z,8.8
